sensor_id;sensor_type;location;lat;lon;timestamp;P1;durP1;ratioP1;P2;durP2;ratioP2
14599;SDS011;7386;45.586;12.854;2023-02-10T00:01:22;23.50;;;15.80;;
14599;SDS011;7386;45.586;12.854;2023-02-10T00:03:52;24.53;;;16.43;;
14599;SDS011;7386;45.586;12.854;2023-02-10T00:06:21;25.10;;;15.97;;
14599;SDS011;7386;45.586;12.854;2023-02-10T00:08:50;24.93;;;16.43;;
14599;SDS011;7386;45.586;12.854;2023-02-10T00:11:19;26.10;;;16.40;;
14599;SDS011;7386;45.586;12.854;2023-02-10T00:14:08;25.40;;;16.97;;
14599;SDS011;7386;45.586;12.854;2023-02-10T00:16:37;24.77;;;17.33;;
14599;SDS011;7386;45.586;12.854;2023-02-10T00:19:07;25.43;;;16.37;;
14599;SDS011;7386;45.586;12.854;2023-02-10T00:21:35;24.43;;;17.07;;
14599;SDS011;7386;45.586;12.854;2023-02-10T00:24:04;24.90;;;16.33;;
14599;SDS011;7386;45.586;12.854;2023-02-10T00:26:33;24.30;;;16.93;;
14599;SDS011;7386;45.586;12.854;2023-02-10T00:29:01;26.27;;;17.13;;
14599;SDS011;7386;45.586;12.854;2023-02-10T00:31:30;25.70;;;17.90;;
14599;SDS011;7386;45.586;12.854;2023-02-10T00:33:58;29.37;;;17.87;;
14599;SDS011;7386;45.586;12.854;2023-02-10T00:36:28;26.60;;;17.73;;
14599;SDS011;7386;45.586;12.854;2023-02-10T00:38:57;25.00;;;17.30;;
14599;SDS011;7386;45.586;12.854;2023-02-10T00:41:25;24.73;;;16.77;;
14599;SDS011;7386;45.586;12.854;2023-02-10T00:43:54;26.20;;;16.43;;
14599;SDS011;7386;45.586;12.854;2023-02-10T00:46:22;27.07;;;17.07;;
14599;SDS011;7386;45.586;12.854;2023-02-10T00:48:51;24.70;;;17.17;;
14599;SDS011;7386;45.586;12.854;2023-02-10T00:51:19;27.33;;;17.23;;
14599;SDS011;7386;45.586;12.854;2023-02-10T00:53:49;23.40;;;15.90;;
14599;SDS011;7386;45.586;12.854;2023-02-10T00:56:19;21.70;;;14.80;;
14599;SDS011;7386;45.586;12.854;2023-02-10T00:58:48;24.83;;;17.27;;
14599;SDS011;7386;45.586;12.854;2023-02-10T01:01:16;23.67;;;17.07;;
14599;SDS011;7386;45.586;12.854;2023-02-10T01:03:44;26.03;;;17.87;;
14599;SDS011;7386;45.586;12.854;2023-02-10T01:06:13;32.03;;;20.73;;
14599;SDS011;7386;45.586;12.854;2023-02-10T01:08:42;31.20;;;21.37;;
14599;SDS011;7386;45.586;12.854;2023-02-10T01:11:12;32.43;;;21.43;;
14599;SDS011;7386;45.586;12.854;2023-02-10T01:13:41;35.40;;;22.63;;
14599;SDS011;7386;45.586;12.854;2023-02-10T01:16:11;32.80;;;22.53;;
14599;SDS011;7386;45.586;12.854;2023-02-10T01:18:40;34.83;;;24.47;;
14599;SDS011;7386;45.586;12.854;2023-02-10T01:21:09;33.87;;;23.20;;
14599;SDS011;7386;45.586;12.854;2023-02-10T01:23:38;31.80;;;21.90;;
14599;SDS011;7386;45.586;12.854;2023-02-10T01:26:06;33.03;;;22.23;;
14599;SDS011;7386;45.586;12.854;2023-02-10T01:28:36;37.50;;;24.30;;
14599;SDS011;7386;45.586;12.854;2023-02-10T01:31:05;32.53;;;23.23;;
14599;SDS011;7386;45.586;12.854;2023-02-10T01:33:34;29.00;;;21.07;;
14599;SDS011;7386;45.586;12.854;2023-02-10T01:36:03;32.90;;;22.60;;
14599;SDS011;7386;45.586;12.854;2023-02-10T01:38:32;31.20;;;21.60;;
14599;SDS011;7386;45.586;12.854;2023-02-10T01:41:00;34.13;;;21.67;;
14599;SDS011;7386;45.586;12.854;2023-02-10T01:43:29;29.60;;;20.57;;
14599;SDS011;7386;45.586;12.854;2023-02-10T01:45:59;35.73;;;23.83;;
14599;SDS011;7386;45.586;12.854;2023-02-10T01:48:27;33.93;;;22.93;;
14599;SDS011;7386;45.586;12.854;2023-02-10T01:50:57;37.03;;;22.70;;
14599;SDS011;7386;45.586;12.854;2023-02-10T01:53:26;32.70;;;22.87;;
14599;SDS011;7386;45.586;12.854;2023-02-10T01:55:55;35.57;;;23.17;;
14599;SDS011;7386;45.586;12.854;2023-02-10T01:58:25;30.93;;;21.67;;
14599;SDS011;7386;45.586;12.854;2023-02-10T02:00:54;36.60;;;24.03;;
14599;SDS011;7386;45.586;12.854;2023-02-10T02:03:24;35.17;;;24.27;;
14599;SDS011;7386;45.586;12.854;2023-02-10T02:05:53;32.87;;;20.77;;
14599;SDS011;7386;45.586;12.854;2023-02-10T02:08:22;36.47;;;22.60;;
14599;SDS011;7386;45.586;12.854;2023-02-10T02:10:54;35.43;;;23.37;;
14599;SDS011;7386;45.586;12.854;2023-02-10T02:13:27;32.87;;;20.57;;
14599;SDS011;7386;45.586;12.854;2023-02-10T02:15:57;32.33;;;20.80;;
14599;SDS011;7386;45.586;12.854;2023-02-10T02:18:31;33.30;;;21.97;;
14599;SDS011;7386;45.586;12.854;2023-02-10T02:23:57;31.80;;;20.97;;
14599;SDS011;7386;45.586;12.854;2023-02-10T02:26:33;33.83;;;22.03;;
14599;SDS011;7386;45.586;12.854;2023-02-10T02:29:10;34.20;;;23.07;;
14599;SDS011;7386;45.586;12.854;2023-02-10T02:31:47;27.80;;;20.10;;
14599;SDS011;7386;45.586;12.854;2023-02-10T02:34:17;31.77;;;20.50;;
14599;SDS011;7386;45.586;12.854;2023-02-10T02:36:47;30.13;;;20.93;;
14599;SDS011;7386;45.586;12.854;2023-02-10T02:39:16;34.10;;;21.23;;
14599;SDS011;7386;45.586;12.854;2023-02-10T02:41:45;36.13;;;22.97;;
14599;SDS011;7386;45.586;12.854;2023-02-10T02:44:13;31.43;;;21.87;;
14599;SDS011;7386;45.586;12.854;2023-02-10T02:46:48;31.60;;;22.17;;
14599;SDS011;7386;45.586;12.854;2023-02-10T02:49:23;33.60;;;23.17;;
14599;SDS011;7386;45.586;12.854;2023-02-10T02:51:56;29.77;;;20.83;;
14599;SDS011;7386;45.586;12.854;2023-02-10T02:54:30;29.80;;;20.50;;
14599;SDS011;7386;45.586;12.854;2023-02-10T02:57:03;34.70;;;22.57;;
14599;SDS011;7386;45.586;12.854;2023-02-10T02:59:34;35.37;;;23.27;;
14599;SDS011;7386;45.586;12.854;2023-02-10T03:02:04;36.17;;;24.07;;
14599;SDS011;7386;45.586;12.854;2023-02-10T03:04:35;41.07;;;23.20;;
14599;SDS011;7386;45.586;12.854;2023-02-10T03:07:04;32.87;;;22.50;;
14599;SDS011;7386;45.586;12.854;2023-02-10T03:09:33;36.27;;;23.10;;
14599;SDS011;7386;45.586;12.854;2023-02-10T03:12:02;30.67;;;20.63;;
14599;SDS011;7386;45.586;12.854;2023-02-10T03:14:31;31.87;;;21.63;;
14599;SDS011;7386;45.586;12.854;2023-02-10T03:16:59;28.90;;;18.93;;
14599;SDS011;7386;45.586;12.854;2023-02-10T03:19:28;33.40;;;21.90;;
14599;SDS011;7386;45.586;12.854;2023-02-10T03:21:58;32.70;;;21.43;;
14599;SDS011;7386;45.586;12.854;2023-02-10T03:24:26;35.50;;;22.77;;
14599;SDS011;7386;45.586;12.854;2023-02-10T03:26:54;30.50;;;21.37;;
14599;SDS011;7386;45.586;12.854;2023-02-10T03:29:23;32.20;;;21.50;;
14599;SDS011;7386;45.586;12.854;2023-02-10T03:31:51;29.73;;;21.47;;
14599;SDS011;7386;45.586;12.854;2023-02-10T03:34:20;30.90;;;21.27;;
14599;SDS011;7386;45.586;12.854;2023-02-10T03:36:49;28.53;;;20.07;;
14599;SDS011;7386;45.586;12.854;2023-02-10T03:39:19;31.47;;;21.60;;
14599;SDS011;7386;45.586;12.854;2023-02-10T03:41:47;30.97;;;21.03;;
14599;SDS011;7386;45.586;12.854;2023-02-10T03:44:16;29.90;;;19.77;;
14599;SDS011;7386;45.586;12.854;2023-02-10T03:46:44;30.87;;;20.60;;
14599;SDS011;7386;45.586;12.854;2023-02-10T03:49:13;28.73;;;20.23;;
14599;SDS011;7386;45.586;12.854;2023-02-10T03:51:41;34.43;;;20.77;;
14599;SDS011;7386;45.586;12.854;2023-02-10T03:54:10;35.03;;;23.13;;
14599;SDS011;7386;45.586;12.854;2023-02-10T03:56:40;33.33;;;22.47;;
14599;SDS011;7386;45.586;12.854;2023-02-10T03:59:08;32.00;;;21.53;;
14599;SDS011;7386;45.586;12.854;2023-02-10T04:01:37;31.47;;;22.57;;
14599;SDS011;7386;45.586;12.854;2023-02-10T04:04:05;34.33;;;23.40;;
14599;SDS011;7386;45.586;12.854;2023-02-10T04:06:34;44.40;;;27.17;;
14599;SDS011;7386;45.586;12.854;2023-02-10T04:09:02;42.00;;;26.40;;
14599;SDS011;7386;45.586;12.854;2023-02-10T04:11:31;28.97;;;19.83;;
14599;SDS011;7386;45.586;12.854;2023-02-10T04:14:01;37.57;;;26.13;;
14599;SDS011;7386;45.586;12.854;2023-02-10T04:16:29;34.47;;;23.33;;
14599;SDS011;7386;45.586;12.854;2023-02-10T04:18:58;33.77;;;21.97;;
14599;SDS011;7386;45.586;12.854;2023-02-10T04:21:26;33.97;;;23.07;;
14599;SDS011;7386;45.586;12.854;2023-02-10T04:23:55;33.07;;;21.20;;
14599;SDS011;7386;45.586;12.854;2023-02-10T04:26:23;30.63;;;21.10;;
14599;SDS011;7386;45.586;12.854;2023-02-10T04:28:52;30.00;;;21.27;;
14599;SDS011;7386;45.586;12.854;2023-02-10T04:31:21;29.43;;;20.07;;
14599;SDS011;7386;45.586;12.854;2023-02-10T04:33:50;29.37;;;20.53;;
14599;SDS011;7386;45.586;12.854;2023-02-10T04:36:19;28.57;;;19.63;;
14599;SDS011;7386;45.586;12.854;2023-02-10T04:38:47;32.40;;;21.80;;
14599;SDS011;7386;45.586;12.854;2023-02-10T04:41:16;27.77;;;19.70;;
14599;SDS011;7386;45.586;12.854;2023-02-10T04:43:44;36.20;;;23.17;;
14599;SDS011;7386;45.586;12.854;2023-02-10T04:46:13;37.87;;;23.47;;
14599;SDS011;7386;45.586;12.854;2023-02-10T04:48:43;31.80;;;21.87;;
14599;SDS011;7386;45.586;12.854;2023-02-10T04:51:11;24.83;;;16.97;;
14599;SDS011;7386;45.586;12.854;2023-02-10T04:53:40;40.43;;;26.33;;
14599;SDS011;7386;45.586;12.854;2023-02-10T04:56:10;44.97;;;27.93;;
14599;SDS011;7386;45.586;12.854;2023-02-10T04:58:38;42.77;;;27.77;;
14599;SDS011;7386;45.586;12.854;2023-02-10T05:01:07;38.83;;;24.90;;
14599;SDS011;7386;45.586;12.854;2023-02-10T05:03:36;36.83;;;24.43;;
14599;SDS011;7386;45.586;12.854;2023-02-10T05:06:09;41.40;;;25.67;;
14599;SDS011;7386;45.586;12.854;2023-02-10T05:08:38;42.70;;;25.57;;
14599;SDS011;7386;45.586;12.854;2023-02-10T05:11:08;36.23;;;24.93;;
14599;SDS011;7386;45.586;12.854;2023-02-10T05:13:36;39.07;;;26.37;;
14599;SDS011;7386;45.586;12.854;2023-02-10T05:16:06;42.33;;;29.03;;
14599;SDS011;7386;45.586;12.854;2023-02-10T05:18:35;42.57;;;28.00;;
14599;SDS011;7386;45.586;12.854;2023-02-10T05:21:06;39.53;;;26.90;;
14599;SDS011;7386;45.586;12.854;2023-02-10T05:23:36;38.53;;;25.73;;
14599;SDS011;7386;45.586;12.854;2023-02-10T05:26:05;38.03;;;26.23;;
14599;SDS011;7386;45.586;12.854;2023-02-10T05:28:34;36.57;;;24.40;;
14599;SDS011;7386;45.586;12.854;2023-02-10T05:31:02;41.37;;;28.57;;
14599;SDS011;7386;45.586;12.854;2023-02-10T05:33:33;35.27;;;23.40;;
14599;SDS011;7386;45.586;12.854;2023-02-10T05:36:01;39.20;;;24.20;;
14599;SDS011;7386;45.586;12.854;2023-02-10T05:38:30;37.63;;;25.20;;
14599;SDS011;7386;45.586;12.854;2023-02-10T05:41:00;37.17;;;23.97;;
14599;SDS011;7386;45.586;12.854;2023-02-10T05:43:28;35.30;;;23.70;;
14599;SDS011;7386;45.586;12.854;2023-02-10T05:45:57;33.73;;;22.27;;
14599;SDS011;7386;45.586;12.854;2023-02-10T05:48:25;30.40;;;21.40;;
14599;SDS011;7386;45.586;12.854;2023-02-10T05:50:53;33.37;;;22.13;;
14599;SDS011;7386;45.586;12.854;2023-02-10T05:53:23;31.50;;;20.97;;
14599;SDS011;7386;45.586;12.854;2023-02-10T05:55:51;31.40;;;20.60;;
14599;SDS011;7386;45.586;12.854;2023-02-10T05:58:21;31.17;;;21.27;;
14599;SDS011;7386;45.586;12.854;2023-02-10T06:00:49;29.23;;;21.20;;
14599;SDS011;7386;45.586;12.854;2023-02-10T06:03:18;31.00;;;22.73;;
14599;SDS011;7386;45.586;12.854;2023-02-10T06:05:46;29.03;;;19.60;;
14599;SDS011;7386;45.586;12.854;2023-02-10T06:08:16;35.50;;;22.20;;
14599;SDS011;7386;45.586;12.854;2023-02-10T06:10:44;28.30;;;19.63;;
14599;SDS011;7386;45.586;12.854;2023-02-10T06:13:12;29.57;;;19.87;;
14599;SDS011;7386;45.586;12.854;2023-02-10T06:15:42;29.50;;;21.23;;
14599;SDS011;7386;45.586;12.854;2023-02-10T06:18:11;27.67;;;19.73;;
14599;SDS011;7386;45.586;12.854;2023-02-10T06:20:39;33.67;;;21.93;;
14599;SDS011;7386;45.586;12.854;2023-02-10T06:23:10;28.47;;;20.37;;
14599;SDS011;7386;45.586;12.854;2023-02-10T06:25:39;28.47;;;19.83;;
14599;SDS011;7386;45.586;12.854;2023-02-10T06:28:08;28.60;;;20.37;;
14599;SDS011;7386;45.586;12.854;2023-02-10T06:30:36;30.10;;;20.73;;
14599;SDS011;7386;45.586;12.854;2023-02-10T06:33:06;25.33;;;17.53;;
14599;SDS011;7386;45.586;12.854;2023-02-10T06:35:35;21.30;;;15.47;;
14599;SDS011;7386;45.586;12.854;2023-02-10T06:38:03;25.63;;;17.43;;
14599;SDS011;7386;45.586;12.854;2023-02-10T06:40:32;26.13;;;18.80;;
14599;SDS011;7386;45.586;12.854;2023-02-10T06:43:00;27.23;;;18.40;;
14599;SDS011;7386;45.586;12.854;2023-02-10T06:45:29;25.80;;;18.63;;
14599;SDS011;7386;45.586;12.854;2023-02-10T06:47:58;28.10;;;18.67;;
14599;SDS011;7386;45.586;12.854;2023-02-10T06:50:28;30.30;;;19.57;;
14599;SDS011;7386;45.586;12.854;2023-02-10T06:52:57;28.27;;;19.90;;
14599;SDS011;7386;45.586;12.854;2023-02-10T06:55:25;29.07;;;18.57;;
14599;SDS011;7386;45.586;12.854;2023-02-10T06:57:57;29.93;;;19.17;;
14599;SDS011;7386;45.586;12.854;2023-02-10T07:00:26;27.80;;;18.10;;
14599;SDS011;7386;45.586;12.854;2023-02-10T07:02:54;27.23;;;18.33;;
14599;SDS011;7386;45.586;12.854;2023-02-10T07:05:23;26.93;;;17.70;;
14599;SDS011;7386;45.586;12.854;2023-02-10T07:07:53;31.30;;;20.57;;
14599;SDS011;7386;45.586;12.854;2023-02-10T07:10:21;29.30;;;20.83;;
14599;SDS011;7386;45.586;12.854;2023-02-10T07:12:50;28.97;;;20.87;;
14599;SDS011;7386;45.586;12.854;2023-02-10T07:15:22;33.70;;;21.40;;
14599;SDS011;7386;45.586;12.854;2023-02-10T07:17:50;32.83;;;21.10;;
14599;SDS011;7386;45.586;12.854;2023-02-10T07:20:19;27.83;;;18.73;;
14599;SDS011;7386;45.586;12.854;2023-02-10T07:22:47;30.97;;;21.10;;
14599;SDS011;7386;45.586;12.854;2023-02-10T07:25:17;29.50;;;20.37;;
14599;SDS011;7386;45.586;12.854;2023-02-10T07:27:46;28.37;;;19.67;;
14599;SDS011;7386;45.586;12.854;2023-02-10T07:30:15;27.70;;;19.37;;
14599;SDS011;7386;45.586;12.854;2023-02-10T07:32:43;26.33;;;17.53;;
14599;SDS011;7386;45.586;12.854;2023-02-10T07:35:12;30.37;;;19.93;;
14599;SDS011;7386;45.586;12.854;2023-02-10T07:37:40;29.80;;;19.53;;
14599;SDS011;7386;45.586;12.854;2023-02-10T07:40:09;25.10;;;18.17;;
14599;SDS011;7386;45.586;12.854;2023-02-10T07:42:39;26.40;;;18.40;;
14599;SDS011;7386;45.586;12.854;2023-02-10T07:45:08;26.13;;;17.30;;
14599;SDS011;7386;45.586;12.854;2023-02-10T07:47:36;24.00;;;15.70;;
14599;SDS011;7386;45.586;12.854;2023-02-10T07:50:05;23.07;;;15.80;;
14599;SDS011;7386;45.586;12.854;2023-02-10T07:52:33;24.17;;;17.60;;
14599;SDS011;7386;45.586;12.854;2023-02-10T07:55:02;25.07;;;16.07;;
14599;SDS011;7386;45.586;12.854;2023-02-10T07:57:30;23.53;;;17.07;;
14599;SDS011;7386;45.586;12.854;2023-02-10T08:00:00;21.97;;;15.53;;
14599;SDS011;7386;45.586;12.854;2023-02-10T08:02:29;21.67;;;15.77;;
14599;SDS011;7386;45.586;12.854;2023-02-10T08:04:57;22.27;;;15.13;;
14599;SDS011;7386;45.586;12.854;2023-02-10T08:07:26;21.37;;;14.60;;
14599;SDS011;7386;45.586;12.854;2023-02-10T08:09:54;24.60;;;16.90;;
14599;SDS011;7386;45.586;12.854;2023-02-10T08:12:23;24.63;;;16.63;;
14599;SDS011;7386;45.586;12.854;2023-02-10T08:14:51;28.40;;;18.90;;
14599;SDS011;7386;45.586;12.854;2023-02-10T08:17:21;27.20;;;17.97;;
14599;SDS011;7386;45.586;12.854;2023-02-10T08:19:49;28.60;;;18.07;;
14599;SDS011;7386;45.586;12.854;2023-02-10T08:22:18;31.17;;;18.57;;
14599;SDS011;7386;45.586;12.854;2023-02-10T08:24:46;28.00;;;18.27;;
14599;SDS011;7386;45.586;12.854;2023-02-10T08:27:15;41.77;;;25.60;;
14599;SDS011;7386;45.586;12.854;2023-02-10T08:29:43;31.07;;;20.57;;
14599;SDS011;7386;45.586;12.854;2023-02-10T08:32:12;32.73;;;19.67;;
14599;SDS011;7386;45.586;12.854;2023-02-10T08:34:46;29.13;;;18.73;;
14599;SDS011;7386;45.586;12.854;2023-02-10T08:37:15;25.70;;;17.27;;
14599;SDS011;7386;45.586;12.854;2023-02-10T08:39:44;28.60;;;18.33;;
14599;SDS011;7386;45.586;12.854;2023-02-10T08:42:12;28.07;;;18.57;;
14599;SDS011;7386;45.586;12.854;2023-02-10T08:44:41;27.77;;;17.60;;
14599;SDS011;7386;45.586;12.854;2023-02-10T08:47:10;30.63;;;18.87;;
14599;SDS011;7386;45.586;12.854;2023-02-10T08:49:40;30.43;;;18.37;;
14599;SDS011;7386;45.586;12.854;2023-02-10T08:52:10;29.43;;;18.63;;
14599;SDS011;7386;45.586;12.854;2023-02-10T08:54:39;28.03;;;18.43;;
14599;SDS011;7386;45.586;12.854;2023-02-10T08:57:07;28.97;;;16.57;;
14599;SDS011;7386;45.586;12.854;2023-02-10T08:59:36;27.47;;;17.73;;
14599;SDS011;7386;45.586;12.854;2023-02-10T09:02:05;25.63;;;15.93;;
14599;SDS011;7386;45.586;12.854;2023-02-10T09:04:33;22.40;;;14.40;;
14599;SDS011;7386;45.586;12.854;2023-02-10T09:07:02;20.40;;;13.73;;
14599;SDS011;7386;45.586;12.854;2023-02-10T09:09:35;19.23;;;14.07;;
14599;SDS011;7386;45.586;12.854;2023-02-10T09:12:04;25.10;;;15.17;;
14599;SDS011;7386;45.586;12.854;2023-02-10T09:14:33;23.20;;;14.63;;
14599;SDS011;7386;45.586;12.854;2023-02-10T09:17:01;23.17;;;15.97;;
14599;SDS011;7386;45.586;12.854;2023-02-10T09:19:30;24.53;;;15.17;;
14599;SDS011;7386;45.586;12.854;2023-02-10T09:21:58;22.90;;;14.40;;
14599;SDS011;7386;45.586;12.854;2023-02-10T09:24:27;23.17;;;15.17;;
14599;SDS011;7386;45.586;12.854;2023-02-10T09:26:57;22.53;;;14.07;;
14599;SDS011;7386;45.586;12.854;2023-02-10T09:29:26;22.70;;;13.73;;
14599;SDS011;7386;45.586;12.854;2023-02-10T09:31:54;17.83;;;12.53;;
14599;SDS011;7386;45.586;12.854;2023-02-10T09:34:23;20.70;;;11.97;;
14599;SDS011;7386;45.586;12.854;2023-02-10T09:36:52;19.27;;;11.30;;
14599;SDS011;7386;45.586;12.854;2023-02-10T09:39:23;16.37;;;11.83;;
14599;SDS011;7386;45.586;12.854;2023-02-10T09:41:54;17.97;;;11.10;;
14599;SDS011;7386;45.586;12.854;2023-02-10T09:44:26;16.60;;;11.23;;
14599;SDS011;7386;45.586;12.854;2023-02-10T09:50:02;21.53;;;11.27;;
14599;SDS011;7386;45.586;12.854;2023-02-10T09:52:36;17.27;;;10.93;;
14599;SDS011;7386;45.586;12.854;2023-02-10T09:55:08;18.63;;;11.53;;
14599;SDS011;7386;45.586;12.854;2023-02-10T09:57:41;16.97;;;10.00;;
14599;SDS011;7386;45.586;12.854;2023-02-10T10:00:14;16.13;;;10.60;;
14599;SDS011;7386;45.586;12.854;2023-02-10T10:02:46;16.50;;;10.53;;
14599;SDS011;7386;45.586;12.854;2023-02-10T10:05:19;18.47;;;11.37;;
14599;SDS011;7386;45.586;12.854;2023-02-10T10:07:51;19.30;;;11.20;;
14599;SDS011;7386;45.586;12.854;2023-02-10T10:10:22;17.93;;;10.00;;
14599;SDS011;7386;45.586;12.854;2023-02-10T10:12:53;15.90;;;10.30;;
14599;SDS011;7386;45.586;12.854;2023-02-10T10:15:23;17.97;;;11.03;;
14599;SDS011;7386;45.586;12.854;2023-02-10T10:17:56;19.03;;;11.80;;
14599;SDS011;7386;45.586;12.854;2023-02-10T10:20:37;19.40;;;10.13;;
14599;SDS011;7386;45.586;12.854;2023-02-10T10:26:06;16.60;;;9.70;;
14599;SDS011;7386;45.586;12.854;2023-02-10T10:28:42;15.67;;;9.43;;
14599;SDS011;7386;45.586;12.854;2023-02-10T10:31:15;18.27;;;10.90;;
14599;SDS011;7386;45.586;12.854;2023-02-10T10:33:45;15.30;;;9.70;;
14599;SDS011;7386;45.586;12.854;2023-02-10T10:36:16;16.47;;;11.00;;
14599;SDS011;7386;45.586;12.854;2023-02-10T10:38:47;18.73;;;11.23;;
14599;SDS011;7386;45.586;12.854;2023-02-10T10:41:16;18.37;;;11.27;;
14599;SDS011;7386;45.586;12.854;2023-02-10T10:43:45;18.30;;;11.23;;
14599;SDS011;7386;45.586;12.854;2023-02-10T10:46:17;14.43;;;10.20;;
14599;SDS011;7386;45.586;12.854;2023-02-10T10:48:47;15.77;;;10.67;;
14599;SDS011;7386;45.586;12.854;2023-02-10T10:51:15;18.23;;;10.13;;
14599;SDS011;7386;45.586;12.854;2023-02-10T10:53:46;16.30;;;10.47;;
14599;SDS011;7386;45.586;12.854;2023-02-10T10:56:26;18.40;;;10.67;;
14599;SDS011;7386;45.586;12.854;2023-02-10T10:58:56;18.43;;;10.83;;
14599;SDS011;7386;45.586;12.854;2023-02-10T11:01:34;16.77;;;11.17;;
14599;SDS011;7386;45.586;12.854;2023-02-10T11:04:03;18.07;;;11.60;;
14599;SDS011;7386;45.586;12.854;2023-02-10T11:06:33;17.87;;;11.20;;
14599;SDS011;7386;45.586;12.854;2023-02-10T11:09:03;19.27;;;11.63;;
14599;SDS011;7386;45.586;12.854;2023-02-10T11:11:32;18.50;;;12.30;;
14599;SDS011;7386;45.586;12.854;2023-02-10T11:14:11;17.67;;;11.87;;
14599;SDS011;7386;45.586;12.854;2023-02-10T11:16:43;20.93;;;13.13;;
14599;SDS011;7386;45.586;12.854;2023-02-10T11:19:16;19.50;;;12.57;;
14599;SDS011;7386;45.586;12.854;2023-02-10T11:21:45;19.77;;;12.07;;
14599;SDS011;7386;45.586;12.854;2023-02-10T11:24:15;17.23;;;11.30;;
14599;SDS011;7386;45.586;12.854;2023-02-10T11:26:52;17.60;;;11.23;;
14599;SDS011;7386;45.586;12.854;2023-02-10T11:29:21;18.93;;;12.70;;
14599;SDS011;7386;45.586;12.854;2023-02-10T11:31:52;18.00;;;11.53;;
14599;SDS011;7386;45.586;12.854;2023-02-10T11:34:21;20.27;;;13.03;;
14599;SDS011;7386;45.586;12.854;2023-02-10T11:36:52;18.63;;;12.03;;
14599;SDS011;7386;45.586;12.854;2023-02-10T11:39:22;16.10;;;11.17;;
14599;SDS011;7386;45.586;12.854;2023-02-10T11:41:51;18.90;;;12.40;;
14599;SDS011;7386;45.586;12.854;2023-02-10T11:44:22;18.67;;;12.83;;
14599;SDS011;7386;45.586;12.854;2023-02-10T11:46:57;19.53;;;13.07;;
14599;SDS011;7386;45.586;12.854;2023-02-10T11:49:26;21.07;;;12.43;;
14599;SDS011;7386;45.586;12.854;2023-02-10T11:51:59;18.60;;;12.63;;
14599;SDS011;7386;45.586;12.854;2023-02-10T11:54:28;20.63;;;12.83;;
14599;SDS011;7386;45.586;12.854;2023-02-10T11:57:03;21.37;;;12.93;;
14599;SDS011;7386;45.586;12.854;2023-02-10T11:59:52;19.63;;;12.50;;
14599;SDS011;7386;45.586;12.854;2023-02-10T12:02:26;19.63;;;12.70;;
14599;SDS011;7386;45.586;12.854;2023-02-10T12:05:00;20.63;;;11.87;;
14599;SDS011;7386;45.586;12.854;2023-02-10T12:07:35;22.60;;;14.37;;
14599;SDS011;7386;45.586;12.854;2023-02-10T12:10:08;18.27;;;12.73;;
14599;SDS011;7386;45.586;12.854;2023-02-10T12:12:38;18.37;;;12.13;;
14599;SDS011;7386;45.586;12.854;2023-02-10T13:36:41;18.00;;;11.60;;
14599;SDS011;7386;45.586;12.854;2023-02-10T13:39:15;17.43;;;11.50;;
14599;SDS011;7386;45.586;12.854;2023-02-10T13:41:45;18.90;;;10.93;;
14599;SDS011;7386;45.586;12.854;2023-02-10T13:44:23;16.83;;;11.17;;
14599;SDS011;7386;45.586;12.854;2023-02-10T13:46:53;16.97;;;11.30;;
14599;SDS011;7386;45.586;12.854;2023-02-10T13:49:23;17.67;;;11.70;;
14599;SDS011;7386;45.586;12.854;2023-02-10T13:52:00;18.00;;;12.43;;
14599;SDS011;7386;45.586;12.854;2023-02-10T13:54:31;15.53;;;11.00;;
14599;SDS011;7386;45.586;12.854;2023-02-10T13:57:02;15.27;;;10.13;;
14599;SDS011;7386;45.586;12.854;2023-02-10T13:59:37;17.23;;;11.40;;
14599;SDS011;7386;45.586;12.854;2023-02-10T14:02:11;17.43;;;11.23;;
14599;SDS011;7386;45.586;12.854;2023-02-10T14:04:44;17.20;;;11.00;;
14599;SDS011;7386;45.586;12.854;2023-02-10T14:07:16;15.70;;;10.60;;
14599;SDS011;7386;45.586;12.854;2023-02-10T14:09:46;15.87;;;10.67;;
14599;SDS011;7386;45.586;12.854;2023-02-10T14:12:25;12.93;;;9.27;;
14599;SDS011;7386;45.586;12.854;2023-02-10T14:14:54;16.03;;;10.83;;
14599;SDS011;7386;45.586;12.854;2023-02-10T14:17:24;16.90;;;10.93;;
14599;SDS011;7386;45.586;12.854;2023-02-10T14:19:57;15.00;;;10.60;;
14599;SDS011;7386;45.586;12.854;2023-02-10T14:22:31;14.83;;;9.50;;
14599;SDS011;7386;45.586;12.854;2023-02-10T14:25:13;16.83;;;9.70;;
14599;SDS011;7386;45.586;12.854;2023-02-10T14:27:45;15.57;;;9.80;;
14599;SDS011;7386;45.586;12.854;2023-02-10T14:30:15;14.47;;;9.53;;
14599;SDS011;7386;45.586;12.854;2023-02-10T14:32:46;13.33;;;8.23;;
14599;SDS011;7386;45.586;12.854;2023-02-10T14:35:15;14.40;;;9.57;;
14599;SDS011;7386;45.586;12.854;2023-02-10T14:37:56;13.50;;;9.10;;
14599;SDS011;7386;45.586;12.854;2023-02-10T14:40:26;12.03;;;8.40;;
14599;SDS011;7386;45.586;12.854;2023-02-10T14:42:56;14.20;;;9.83;;
14599;SDS011;7386;45.586;12.854;2023-02-10T14:45:25;15.27;;;9.33;;
14599;SDS011;7386;45.586;12.854;2023-02-10T14:47:55;15.03;;;9.50;;
14599;SDS011;7386;45.586;12.854;2023-02-10T14:50:25;11.50;;;8.40;;
14599;SDS011;7386;45.586;12.854;2023-02-10T14:52:55;12.47;;;8.87;;
14599;SDS011;7386;45.586;12.854;2023-02-10T14:55:25;13.90;;;10.10;;
14599;SDS011;7386;45.586;12.854;2023-02-10T14:57:55;15.07;;;9.57;;
14599;SDS011;7386;45.586;12.854;2023-02-10T15:00:24;13.73;;;8.93;;
14599;SDS011;7386;45.586;12.854;2023-02-10T15:02:54;12.20;;;8.60;;
14599;SDS011;7386;45.586;12.854;2023-02-10T15:05:24;11.47;;;8.27;;
14599;SDS011;7386;45.586;12.854;2023-02-10T15:07:54;14.60;;;9.40;;
14599;SDS011;7386;45.586;12.854;2023-02-10T15:10:25;13.93;;;9.13;;
14599;SDS011;7386;45.586;12.854;2023-02-10T15:12:56;12.67;;;9.03;;
14599;SDS011;7386;45.586;12.854;2023-02-10T15:15:26;12.00;;;8.33;;
14599;SDS011;7386;45.586;12.854;2023-02-10T15:17:57;13.13;;;8.90;;
14599;SDS011;7386;45.586;12.854;2023-02-10T15:20:28;14.20;;;8.57;;
14599;SDS011;7386;45.586;12.854;2023-02-10T15:23:05;13.33;;;9.13;;
14599;SDS011;7386;45.586;12.854;2023-02-10T15:26:01;12.37;;;8.20;;
14599;SDS011;7386;45.586;12.854;2023-02-10T15:28:30;14.10;;;8.67;;
14599;SDS011;7386;45.586;12.854;2023-02-10T15:31:02;14.03;;;8.87;;
14599;SDS011;7386;45.586;12.854;2023-02-10T15:33:33;14.37;;;9.77;;
14599;SDS011;7386;45.586;12.854;2023-02-10T15:36:08;10.47;;;7.90;;
14599;SDS011;7386;45.586;12.854;2023-02-10T15:38:41;14.10;;;9.27;;
14599;SDS011;7386;45.586;12.854;2023-02-10T15:41:25;16.97;;;10.30;;
14599;SDS011;7386;45.586;12.854;2023-02-10T15:43:55;14.10;;;8.50;;
14599;SDS011;7386;45.586;12.854;2023-02-10T15:46:24;17.70;;;8.73;;
14599;SDS011;7386;45.586;12.854;2023-02-10T15:48:54;16.30;;;9.50;;
14599;SDS011;7386;45.586;12.854;2023-02-10T15:51:32;14.33;;;9.47;;
14599;SDS011;7386;45.586;12.854;2023-02-10T15:54:04;14.90;;;9.20;;
14599;SDS011;7386;45.586;12.854;2023-02-10T15:56:34;14.77;;;9.47;;
14599;SDS011;7386;45.586;12.854;2023-02-10T15:59:04;13.17;;;9.13;;
14599;SDS011;7386;45.586;12.854;2023-02-10T16:01:33;17.43;;;9.77;;
14599;SDS011;7386;45.586;12.854;2023-02-10T16:04:02;14.63;;;8.90;;
14599;SDS011;7386;45.586;12.854;2023-02-10T16:06:30;14.23;;;8.43;;
14599;SDS011;7386;45.586;12.854;2023-02-10T16:08:58;18.37;;;9.07;;
14599;SDS011;7386;45.586;12.854;2023-02-10T16:11:27;13.13;;;9.27;;